createdAt,value
2019-03-03T00:02:52.242Z,19.01
2019-03-03T00:08:47.256Z,10.63
2019-03-03T00:14:42.272Z,10.36
2019-03-03T00:20:37.276Z,9.75
2019-03-03T00:26:32.279Z,8.94
2019-03-03T00:32:27.240Z,16.57
2019-03-03T00:38:22.260Z,10.49
2019-03-03T00:44:17.340Z,14
2019-03-03T00:50:12.267Z,9.85
2019-03-03T00:56:07.257Z,9.21
2019-03-03T01:02:02.257Z,9.37
2019-03-03T01:07:57.281Z,9.28
2019-03-03T01:13:52.258Z,8.75
2019-03-03T01:19:47.270Z,10.21
2019-03-03T01:25:42.292Z,9.08
2019-03-03T01:31:37.273Z,7.97
2019-03-03T01:37:32.306Z,7.84
2019-03-03T01:43:27.311Z,9.43
2019-03-03T01:49:22.288Z,8.18
2019-03-03T01:55:17.323Z,9.47
2019-03-03T02:01:12.297Z,7.73
2019-03-03T02:07:07.276Z,8.69
2019-03-03T02:13:02.283Z,8.17
2019-03-03T02:18:57.265Z,8.2
2019-03-03T02:24:52.251Z,7.61
2019-03-03T02:30:47.309Z,8.33
2019-03-03T02:36:42.278Z,8.03
2019-03-03T02:42:37.348Z,6.89
2019-03-03T02:48:32.283Z,8.19
2019-03-03T02:54:27.284Z,7.96
2019-03-03T03:00:22.278Z,7.67
2019-03-03T03:06:17.307Z,7.83
2019-03-03T03:12:12.284Z,6.15
2019-03-03T03:18:07.343Z,8.54
2019-03-03T03:24:02.363Z,8.41
2019-03-03T03:29:57.298Z,8.37
2019-03-03T03:35:52.302Z,8
2019-03-03T03:41:47.299Z,7.33
2019-03-03T03:47:42.320Z,8.52
2019-03-03T03:53:37.349Z,7.58
2019-03-03T03:59:32.355Z,7.56
2019-03-03T04:05:27.341Z,6.88
2019-03-03T04:11:22.363Z,6.78
2019-03-03T04:17:17.309Z,7.24
2019-03-03T04:23:12.310Z,6.4
2019-03-03T04:29:07.347Z,6.7
2019-03-03T04:35:02.370Z,7.6
2019-03-03T04:40:57.303Z,6.54
2019-03-03T04:46:52.300Z,5.96
2019-03-03T04:52:47.339Z,6.76
2019-03-03T04:58:42.380Z,6.26
2019-03-03T05:04:37.332Z,6.2
2019-03-03T05:10:32.361Z,7.24
2019-03-03T05:16:27.313Z,5.79
2019-03-03T05:22:22.325Z,5.19
2019-03-03T05:28:17.323Z,6.84
2019-03-03T05:34:12.346Z,5.34
2019-03-03T05:40:07.323Z,5.49
2019-03-03T05:46:02.338Z,11.1
2019-03-03T05:51:57.335Z,12.66
2019-03-03T05:57:52.339Z,8.62
2019-03-03T06:03:47.323Z,10.56
2019-03-03T06:09:42.334Z,11.32
2019-03-03T06:15:37.318Z,11.15
2019-03-03T06:21:32.329Z,10.3
2019-03-03T06:27:27.316Z,11.92
2019-03-03T06:33:22.334Z,10.81
2019-03-03T06:39:17.383Z,11.16
2019-03-03T06:45:12.443Z,11
2019-03-03T06:51:07.326Z,11
2019-03-03T06:57:02.347Z,9.49
2019-03-03T07:02:57.349Z,10.02
2019-03-03T07:08:52.340Z,10.53
2019-03-03T07:14:47.353Z,11.68
2019-03-03T07:20:42.376Z,24.96
2019-03-03T07:26:37.337Z,28.52
2019-03-03T07:32:32.350Z,29
2019-03-03T07:38:27.373Z,46.05
2019-03-03T07:44:22.354Z,24.63
2019-03-03T07:50:17.380Z,21.3
2019-03-03T07:56:12.355Z,21.41
2019-03-03T08:02:07.357Z,21.28
2019-03-03T08:08:02.372Z,21.26
2019-03-03T08:13:57.381Z,21.05
2019-03-03T08:19:52.415Z,23.69
2019-03-03T08:25:47.360Z,25.37
2019-03-03T08:31:42.412Z,23.77
2019-03-03T08:37:37.388Z,23.27
2019-03-03T08:43:32.418Z,23.93
2019-03-03T08:49:27.382Z,23.5
2019-03-03T08:55:22.381Z,26.65
2019-03-03T09:01:17.375Z,28.37
2019-03-03T09:07:12.384Z,27.23
2019-03-03T09:13:07.373Z,27.63
2019-03-03T09:19:02.376Z,26.57
2019-03-03T09:24:57.368Z,24.01
2019-03-03T09:30:52.393Z,23.85
2019-03-03T09:36:47.376Z,23.77
2019-03-03T09:42:42.374Z,23.7
2019-03-03T09:48:37.372Z,24.8
2019-03-03T09:54:32.393Z,24.22
2019-03-03T10:00:27.387Z,23.24
2019-03-03T10:06:22.392Z,23.08
2019-03-03T10:12:17.370Z,21.46
2019-03-03T10:18:12.404Z,21.49
2019-03-03T10:24:07.375Z,20.11
2019-03-03T10:30:02.389Z,22.23
2019-03-03T10:35:57.410Z,20.14
2019-03-03T10:41:52.414Z,19.21
2019-03-03T10:47:47.406Z,18.73
2019-03-03T10:53:42.387Z,17.35
2019-03-03T10:59:37.386Z,16.58
2019-03-03T11:05:32.443Z,18.03
2019-03-03T11:11:27.420Z,17.87
2019-03-03T11:17:22.397Z,17.97
2019-03-03T11:23:17.433Z,17.28
2019-03-03T11:29:12.471Z,16.8
2019-03-03T11:35:07.410Z,14.74
2019-03-03T11:41:02.414Z,12.87
2019-03-03T11:46:57.409Z,13.5
2019-03-03T11:52:52.446Z,13.19
2019-03-03T11:58:47.444Z,12.83
2019-03-03T12:04:42.392Z,11.68
2019-03-03T12:10:37.427Z,13.69
2019-03-03T12:16:32.468Z,13.66
2019-03-03T12:22:27.423Z,12.73
2019-03-03T12:28:22.451Z,11.95
2019-03-03T12:34:17.462Z,11.85
2019-03-03T12:40:12.529Z,11.4
2019-03-03T12:46:07.437Z,11.77
2019-03-03T12:52:02.493Z,8.22
2019-03-03T12:57:57.446Z,9.39
2019-03-03T13:03:52.476Z,8.33
2019-03-03T13:09:47.466Z,7.88
2019-03-03T13:15:42.477Z,9.32
2019-03-03T13:21:37.460Z,8.43
2019-03-03T13:27:32.453Z,8.43
2019-03-03T13:33:27.437Z,8
2019-03-03T13:39:22.461Z,10.16
2019-03-03T13:45:17.448Z,8.79
2019-03-03T13:51:12.505Z,9.06
2019-03-03T13:57:07.459Z,9.54
2019-03-03T14:03:02.473Z,9.63
2019-03-03T14:08:57.435Z,6.25
2019-03-03T14:14:52.456Z,5.81
2019-03-03T14:20:47.480Z,5.86
2019-03-03T14:26:42.471Z,5.91
2019-03-03T14:32:37.467Z,7.87
2019-03-03T14:38:32.494Z,6.38
2019-03-03T14:44:27.482Z,5.58
2019-03-03T14:50:22.524Z,6.07
2019-03-03T14:56:17.493Z,5.58
2019-03-03T15:02:12.483Z,5.59
2019-03-03T15:08:07.478Z,5
2019-03-03T15:14:02.468Z,5.79
2019-03-03T15:19:57.508Z,6.03
2019-03-03T15:25:52.518Z,6
2019-03-03T15:31:47.494Z,5.03
2019-03-03T15:37:42.520Z,4.58
2019-03-03T15:43:37.498Z,3.83
2019-03-03T15:49:32.516Z,4.29
2019-03-03T15:55:27.512Z,4.62
2019-03-03T16:01:22.480Z,4.98
2019-03-03T16:07:17.589Z,4.16
2019-03-03T16:13:12.507Z,4.4
2019-03-03T16:19:07.506Z,5.37
2019-03-03T16:25:02.497Z,4.62
2019-03-03T16:30:57.509Z,4.72
2019-03-03T16:36:52.498Z,4.4
2019-03-03T16:42:47.565Z,4.4
2019-03-03T16:48:42.518Z,5.02
2019-03-03T16:54:37.521Z,3.8
2019-03-03T17:00:32.518Z,5.44
2019-03-03T17:06:27.532Z,5.53
2019-03-03T17:12:22.508Z,6.48
2019-03-03T17:18:17.538Z,5.92
2019-03-03T17:24:12.545Z,5.54
2019-03-03T17:30:07.562Z,6.19
2019-03-03T17:36:02.551Z,7.03
2019-03-03T17:41:57.533Z,5.29
2019-03-03T17:47:52.530Z,8.05
2019-03-03T17:53:47.538Z,9.7
2019-03-03T17:59:42.522Z,13.4
2019-03-03T18:05:37.544Z,31.65
2019-03-03T18:11:32.542Z,28.43
2019-03-03T18:17:27.606Z,37.71
2019-03-03T18:23:22.569Z,26.38
2019-03-03T18:29:17.536Z,24.17
2019-03-03T18:35:13.095Z,17.34
2019-03-03T18:41:07.585Z,18.58
2019-03-03T18:47:02.540Z,10.25
2019-03-03T18:52:59.596Z,13.03
2019-03-03T18:58:52.564Z,9.06
2019-03-03T19:04:47.544Z,9.29
2019-03-03T19:10:42.586Z,12.45
2019-03-03T19:16:37.562Z,17.28
2019-03-03T19:22:32.553Z,9.8
2019-03-03T19:28:27.549Z,12.39
2019-03-03T19:34:22.684Z,14.37
2019-03-03T19:40:17.571Z,11.76
2019-03-03T19:46:12.558Z,12.6
2019-03-03T19:52:07.564Z,9.78
2019-03-03T19:58:02.603Z,10.99
2019-03-03T20:03:57.595Z,10.14
2019-03-03T20:09:52.623Z,9.74
2019-03-03T20:15:47.560Z,11.12
2019-03-03T20:21:42.581Z,10.81
2019-03-03T20:27:37.568Z,10.43
2019-03-03T20:33:32.571Z,16.39
2019-03-03T20:39:27.552Z,15.08
2019-03-03T20:45:22.586Z,12.06
2019-03-03T20:51:17.644Z,11.29
2019-03-03T20:57:12.587Z,7.73
2019-03-03T21:03:07.645Z,8.68
2019-03-03T21:09:02.600Z,9.72
2019-03-03T21:14:57.604Z,10.79
2019-03-03T21:20:52.562Z,11.83
2019-03-03T21:26:47.617Z,8.75
2019-03-03T21:32:42.680Z,7.92
2019-03-03T21:38:37.636Z,10.87
2019-03-03T21:44:32.587Z,8.92
2019-03-03T21:50:27.606Z,9.01
2019-03-03T21:56:22.590Z,9.61
2019-03-03T22:02:17.599Z,8.79
2019-03-03T22:08:12.591Z,9.62
2019-03-03T22:14:07.587Z,8.09
2019-03-03T22:20:02.566Z,9.07
2019-03-03T22:25:57.583Z,8.01
2019-03-03T22:31:52.594Z,13.71
2019-03-03T22:37:47.582Z,6.59
2019-03-03T22:43:42.590Z,7.42
2019-03-03T22:49:37.567Z,6.52
2019-03-03T22:55:32.579Z,8.78
2019-03-03T23:01:27.637Z,8.46
2019-03-03T23:07:22.640Z,7.37
2019-03-03T23:13:17.664Z,19.8
2019-03-03T23:19:12.620Z,10.82
2019-03-03T23:25:07.708Z,10.03
2019-03-03T23:31:02.638Z,10.8
2019-03-03T23:36:57.585Z,11.9
2019-03-03T23:42:52.637Z,12.89
2019-03-03T23:48:47.620Z,7.73
2019-03-03T23:54:42.629Z,8.58
